Time;durP1;ratioP1;P1;durP2;ratioP2;P2;SDS_P1;SDS_P2;PMS_P1;PMS_P2;Temp;Humidity;BMP_temperature;BMP_pressure;BME280_temperature;BME280_humidity;BME280_pressure;Samples;Min_cycle;Max_cycle;Signal;HPM_P1;HPM_P2
2022/01/10 00:01:11;;;;;;;20.42;8.85;;;;;;;6.71;63.34;101010.28;5064867;28;20064;-66
2022/01/10 00:03:39;;;;;;;17.52;8.25;;;;;;;6.68;63.17;101010.66;5064736;28;20103;-67
2022/01/10 00:06:06;;;;;;;17.70;8.25;;;;;;;6.59;63.43;101013.66;5061784;28;20045;-66
2022/01/10 00:08:34;;;;;;;16.85;8.52;;;;;;;6.66;63.27;101038.56;5054835;28;20046;-66
2022/01/10 00:11:02;;;;;;;17.27;8.40;;;;;;;6.63;63.50;101037.09;5063935;28;20071;-66
2022/01/10 00:13:31;;;;;;;16.83;8.73;;;;;;;6.62;63.33;101048.81;5063644;28;20313;-66
2022/01/10 00:15:59;;;;;;;15.95;7.97;;;;;;;6.63;63.20;101044.28;5064493;28;20081;-67
2022/01/10 00:18:26;;;;;;;21.67;8.40;;;;;;;6.63;63.39;101046.97;5063664;28;20060;-66
2022/01/10 00:20:54;;;;;;;17.08;9.02;;;;;;;6.63;63.13;101052.31;5063194;28;20075;-66
2022/01/10 00:23:22;;;;;;;16.05;9.35;;;;;;;6.61;63.44;101051.66;5061490;28;20083;-66
2022/01/10 00:25:49;;;;;;;21.67;10.23;;;;;;;6.59;63.19;101059.03;5054927;28;20431;-67
2022/01/10 00:28:17;;;;;;;16.70;9.63;;;;;;;6.57;63.28;101061.91;5062775;28;20045;-66
2022/01/10 00:30:46;;;;;;;17.45;8.70;;;;;;;6.57;63.42;101061.06;5056941;28;20076;-66
2022/01/10 00:33:14;;;;;;;17.95;8.60;;;;;;;6.57;63.24;101053.06;5047330;28;20084;-66
2022/01/10 00:35:42;;;;;;;16.88;8.05;;;;;;;6.56;63.36;101059.44;5055725;28;20080;-66
2022/01/10 00:38:09;;;;;;;16.23;8.75;;;;;;;6.56;63.33;101054.09;5051349;28;20065;-67
2022/01/10 00:40:39;;;;;;;16.52;9.50;;;;;;;6.57;62.93;101059.22;5063288;28;20068;-66
2022/01/10 00:43:08;;;;;;;20.10;9.57;;;;;;;6.55;63.29;101065.78;5062887;28;20080;-66
2022/01/10 00:45:36;;;;;;;19.23;8.93;;;;;;;6.56;63.00;101072.78;5063513;28;20072;-66
2022/01/10 00:48:05;;;;;;;18.45;10.27;;;;;;;6.52;63.03;101070.47;5063003;28;20060;-66
2022/01/10 00:50:33;;;;;;;18.48;10.35;;;;;;;6.53;63.03;101082.00;5063426;28;20064;-66
2022/01/10 00:53:01;;;;;;;13.10;8.13;;;;;;;6.50;62.98;101080.53;5055050;28;20084;-66
2022/01/10 00:55:30;;;;;;;14.95;8.23;;;;;;;6.50;62.91;101085.03;5062903;28;20069;-66
2022/01/10 00:57:57;;;;;;;20.20;8.90;;;;;;;6.48;62.95;101087.06;5063460;28;20143;-66
2022/01/10 01:00:25;;;;;;;19.20;9.30;;;;;;;6.50;62.92;101087.72;5063456;28;20053;-67
2022/01/10 01:02:53;;;;;;;16.70;9.48;;;;;;;6.49;63.16;101094.06;5060499;28;20045;-66
2022/01/10 01:05:22;;;;;;;18.80;9.20;;;;;;;6.47;63.48;101104.94;5060420;28;20091;-67
2022/01/10 01:07:50;;;;;;;18.98;9.35;;;;;;;6.46;63.13;101105.94;5061164;28;20151;-66
2022/01/10 01:13:23;;;;;;;20.35;9.35;;;;;;;6.41;63.42;101103.03;5043085;28;20049;-66
2022/01/10 01:16:09;;;;;;;18.67;10.07;;;;;;;6.41;63.24;101118.22;5061698;28;20088;-66
2022/01/10 01:19:06;;;;;;;18.50;9.00;;;;;;;6.39;63.29;101122.91;5062079;28;20059;-66
2022/01/10 01:24:21;;;;;;;17.77;9.02;;;;;;;6.37;63.07;101131.09;5059442;28;20112;-66
2022/01/10 01:26:51;;;;;;;17.30;9.52;;;;;;;6.37;62.90;101141.78;5062353;28;20483;-66
2022/01/10 01:29:21;;;;;;;20.05;8.98;;;;;;;6.36;63.18;101149.97;5062079;28;20068;-66
2022/01/10 01:31:48;;;;;;;18.67;8.32;;;;;;;6.34;62.95;101144.00;5063075;28;20080;-66
2022/01/10 01:34:17;;;;;;;20.60;9.25;;;;;;;6.34;63.08;101146.66;5062589;28;20083;-67
2022/01/10 01:36:51;;;;;;;16.02;8.48;;;;;;;6.33;63.15;101158.34;5062557;28;20049;-66
2022/01/10 01:39:22;;;;;;;14.52;8.73;;;;;;;6.30;62.94;101164.06;5062445;28;20081;-67
2022/01/10 01:41:51;;;;;;;14.80;8.02;;;;;;;6.31;63.15;101168.38;5054960;28;20084;-66
2022/01/10 01:44:18;;;;;;;20.85;9.18;;;;;;;6.30;63.31;101174.75;5062207;28;20053;-66
2022/01/10 01:46:47;;;;;;;17.92;7.95;;;;;;;6.30;63.20;101177.41;5062887;28;20102;-66
2022/01/10 01:49:15;;;;;;;17.83;8.68;;;;;;;6.28;63.15;101182.09;5061060;28;20085;-66
2022/01/10 01:51:43;;;;;;;14.85;9.48;;;;;;;6.25;63.00;101185.16;5060961;28;20370;-66
2022/01/10 01:54:12;;;;;;;18.15;10.45;;;;;;;6.25;63.02;101188.66;5062860;28;20045;-66
2022/01/10 01:56:40;;;;;;;20.67;9.60;;;;;;;6.22;63.06;101199.69;5062147;28;20045;-67
2022/01/10 01:59:10;;;;;;;17.05;9.35;;;;;;;6.22;63.12;101205.03;5062216;28;20057;-66
2022/01/10 02:01:37;;;;;;;18.98;9.30;;;;;;;6.22;63.04;101204.19;5062558;28;20072;-66
2022/01/10 02:04:05;;;;;;;17.40;9.05;;;;;;;6.22;63.11;101206.88;5063226;28;20086;-66
2022/01/10 02:06:33;;;;;;;16.10;8.88;;;;;;;6.20;63.00;101215.06;5059428;28;20061;-66
2022/01/10 02:09:02;;;;;;;22.00;8.80;;;;;;;6.15;63.21;101204.94;5061695;28;20499;-66
2022/01/10 02:11:32;;;;;;;18.20;9.23;;;;;;;6.17;62.85;101210.91;5062492;28;20339;-67
2022/01/10 02:14:00;;;;;;;15.02;8.88;;;;;;;6.17;62.88;101215.44;5061825;28;20076;-67
2022/01/10 02:16:39;;;;;;;15.48;8.68;;;;;;;6.16;62.82;101211.94;5062534;28;20113;-66
2022/01/10 02:19:07;;;;;;;13.57;9.05;;;;;;;6.15;62.85;101210.28;5063006;28;20112;-66
2022/01/10 02:21:37;;;;;;;19.67;8.25;;;;;;;6.15;62.89;101223.63;5061947;28;20036;-66
2022/01/10 02:24:06;;;;;;;18.73;9.68;;;;;;;6.14;62.68;101221.97;5049425;28;20060;-66
2022/01/10 02:26:34;;;;;;;21.95;9.43;;;;;;;6.13;62.68;101220.31;5062124;28;20491;-66
2022/01/10 02:29:02;;;;;;;19.52;8.82;;;;;;;6.12;62.98;101234.66;5061762;28;20072;-67
2022/01/10 02:31:34;;;;;;;21.20;9.35;;;;;;;6.10;63.10;101238.53;5062533;28;20084;-66
2022/01/10 02:34:02;;;;;;;15.95;8.93;;;;;;;6.09;62.92;101231.53;5059685;28;20044;-66
2022/01/10 02:36:30;;;;;;;15.93;8.55;;;;;;;6.08;62.81;101243.22;5054711;28;20052;-66
2022/01/10 02:39:02;;;;;;;19.60;8.93;;;;;;;6.08;62.73;101245.88;5061571;28;20100;-66
2022/01/10 02:41:31;;;;;;;15.85;8.65;;;;;;;6.07;62.72;101249.56;5062097;28;20109;-66
2022/01/10 02:44:01;;;;;;;21.58;9.25;;;;;;;6.06;62.89;101262.06;5061459;28;20073;-67
2022/01/10 02:46:32;;;;;;;14.65;8.25;;;;;;;6.05;63.07;101272.91;5062863;28;20513;-66
2022/01/10 02:49:00;;;;;;;18.20;9.45;;;;;;;6.05;62.74;101264.91;5062372;28;20445;-66
2022/01/10 02:51:27;;;;;;;20.55;8.25;;;;;;;6.05;62.82;101271.09;5063318;28;20081;-66
2022/01/10 02:53:55;;;;;;;19.65;8.85;;;;;;;6.02;62.83;101276.78;5065759;28;20083;-66
2022/01/10 02:56:24;;;;;;;21.73;8.63;;;;;;;6.02;62.99;101282.13;5065838;28;20060;-66
2022/01/10 02:58:52;;;;;;;16.90;8.82;;;;;;;6.06;62.52;101285.25;5065099;28;20041;-66
2022/01/10 03:01:20;;;;;;;16.90;8.63;;;;;;;6.06;62.74;101286.09;5066137;28;20056;-66
2022/01/10 03:03:48;;;;;;;20.00;8.05;;;;;;;6.02;62.73;101284.78;5065925;28;20040;-66
2022/01/10 03:06:16;;;;;;;14.63;8.93;;;;;;;6.02;62.85;101286.63;5065629;28;20055;-66
2022/01/10 03:08:44;;;;;;;16.27;8.55;;;;;;;6.00;63.07;101296.66;5065024;28;20048;-66
2022/01/10 03:11:12;;;;;;;16.45;8.15;;;;;;;6.02;63.02;101295.47;5065632;28;20081;-67
2022/01/10 03:13:41;;;;;;;17.65;8.63;;;;;;;6.01;62.71;101288.47;5065134;28;20085;-66
2022/01/10 03:16:08;;;;;;;15.25;7.55;;;;;;;6.01;63.22;101304.47;5066167;28;20094;-66
2022/01/10 03:18:36;;;;;;;18.80;9.55;;;;;;;6.01;62.92;101311.66;5065812;28;20506;-66
2022/01/10 03:21:04;;;;;;;19.83;9.13;;;;;;;5.99;63.07;101317.16;5070839;28;20059;-66
2022/01/10 03:23:32;;;;;;;15.88;8.68;;;;;;;6.00;63.07;101326.81;5065711;28;20149;-66
2022/01/10 03:26:00;;;;;;;17.83;9.40;;;;;;;5.99;62.88;101340.34;5065851;28;20049;-66
2022/01/10 03:28:27;;;;;;;21.98;8.80;;;;;;;5.98;62.93;101341.34;5064274;28;20056;-67
2022/01/10 03:30:56;;;;;;;19.38;9.18;;;;;;;5.95;63.16;101341.72;5065622;28;20470;-66
2022/01/10 03:33:24;;;;;;;15.13;7.80;;;;;;;5.94;63.20;101335.53;5065228;28;20049;-66
2022/01/10 03:35:52;;;;;;;17.98;8.20;;;;;;;5.94;63.35;101350.72;5065412;28;20049;-66
2022/01/10 03:38:20;;;;;;;12.98;7.93;;;;;;;5.93;63.01;101352.56;5065192;28;20410;-67
2022/01/10 03:40:48;;;;;;;14.57;8.55;;;;;;;5.86;63.05;101335.59;5068917;28;20112;-66
2022/01/10 03:43:16;;;;;;;16.00;8.50;;;;;;;5.93;63.11;101352.56;5064973;28;20049;-66
2022/01/10 03:45:44;;;;;;;22.50;9.13;;;;;;;5.91;63.19;101356.41;5054019;28;20052;-67
2022/01/10 03:48:13;;;;;;;17.00;8.52;;;;;;;5.92;63.08;101377.56;5064750;28;20375;-67
2022/01/10 03:50:41;;;;;;;15.60;8.30;;;;;;;5.91;63.17;101375.91;5064812;28;20080;-66
2022/01/10 03:53:08;;;;;;;15.07;8.95;;;;;;;5.91;63.19;101391.09;5064874;28;20095;-67
2022/01/10 03:55:36;;;;;;;22.08;8.57;;;;;;;5.89;62.95;101383.28;5065111;28;20170;-67
2022/01/10 03:58:04;;;;;;;19.13;8.70;;;;;;;5.87;63.28;101388.75;5060111;28;20077;-66
2022/01/10 04:00:31;;;;;;;17.05;8.35;;;;;;;5.88;63.04;101386.91;5064201;28;20041;-66
2022/01/10 04:03:00;;;;;;;16.25;8.32;;;;;;;5.87;63.19;101396.75;5065058;28;20132;-66
2022/01/10 04:05:30;;;;;;;22.13;10.25;;;;;;;5.86;63.00;101397.75;5064667;28;20048;-66
2022/01/10 04:07:58;;;;;;;17.13;9.00;;;;;;;5.85;62.99;101414.78;5064027;28;20061;-66
2022/01/10 04:10:26;;;;;;;18.65;8.02;;;;;;;5.84;63.14;101407.78;5064227;28;20371;-67
2022/01/10 04:12:53;;;;;;;16.52;7.93;;;;;;;5.84;63.43;101418.44;5064758;28;20083;-66
2022/01/10 04:15:21;;;;;;;18.10;8.30;;;;;;;5.84;63.11;101414.94;5064024;28;20052;-67
2022/01/10 04:17:54;;;;;;;20.17;8.77;;;;;;;5.83;63.27;101427.47;5064626;28;20068;-66
2022/01/10 04:20:22;;;;;;;20.40;8.80;;;;;;;5.83;63.11;101427.47;5064868;28;20072;-66
2022/01/10 04:22:51;;;;;;;16.60;9.07;;;;;;;5.82;63.03;101420.47;5064398;28;20084;-67
2022/01/10 04:25:20;;;;;;;18.00;9.45;;;;;;;5.82;63.47;101423.13;5064274;28;20072;-67
2022/01/10 04:27:47;;;;;;;20.58;8.80;;;;;;;5.83;63.27;101429.28;5063094;28;20075;-67
2022/01/10 04:30:15;;;;;;;15.25;8.05;;;;;;;5.79;63.51;101439.47;5063887;28;20080;-67
2022/01/10 04:32:44;;;;;;;17.25;8.60;;;;;;;5.78;63.45;101437.00;5064728;28;20081;-67
2022/01/10 04:35:12;;;;;;;18.38;8.90;;;;;;;5.78;63.23;101439.66;5064293;28;20052;-67
2022/01/10 04:37:40;;;;;;;22.23;9.90;;;;;;;5.77;63.65;101449.50;5063855;28;20084;-67
2022/01/10 04:40:11;;;;;;;20.02;9.00;;;;;;;5.77;63.21;101449.50;5063870;28;20400;-67
2022/01/10 04:42:39;;;;;;;16.55;8.77;;;;;;;5.77;63.41;101451.34;5063877;28;20048;-67
2022/01/10 04:45:07;;;;;;;18.40;9.35;;;;;;;5.77;63.46;101470.84;5063073;28;20053;-67
2022/01/10 04:47:35;;;;;;;18.13;9.85;;;;;;;5.76;63.75;101473.66;5064215;28;20053;-67
2022/01/10 04:50:26;;;;;;;18.83;8.73;;;;;;;5.75;63.34;101477.34;5063974;28;20463;-67
2022/01/10 04:52:54;;;;;;;16.70;8.80;;;;;;;5.73;63.54;101474.84;5053311;28;20075;-67
2022/01/10 04:55:23;;;;;;;15.88;8.90;;;;;;;5.73;63.70;101479.34;5063475;28;20091;-67
2022/01/10 04:57:51;;;;;;;17.17;9.10;;;;;;;5.73;63.51;101493.53;5063493;28;20068;-67
2022/01/10 05:00:19;;;;;;;20.58;9.65;;;;;;;5.73;63.59;101496.19;5062527;28;20083;-67
2022/01/10 05:02:48;;;;;;;19.63;9.00;;;;;;;5.71;63.93;101498.19;5064227;28;20049;-67
2022/01/10 05:05:16;;;;;;;15.68;8.88;;;;;;;5.72;63.87;101510.53;5064141;28;20140;-67
2022/01/10 05:07:44;;;;;;;15.98;8.27;;;;;;;5.74;63.58;101507.69;5057107;28;20041;-67
2022/01/10 05:10:12;;;;;;;15.18;8.35;;;;;;;5.74;63.71;101507.69;5063570;28;20045;-66
2022/01/10 05:12:41;;;;;;;15.18;8.68;;;;;;;5.74;63.45;101523.69;5063072;28;20494;-66
2022/01/10 05:15:09;;;;;;;19.23;9.68;;;;;;;5.73;63.75;101533.53;5062661;28;20133;-67
2022/01/10 05:17:37;;;;;;;17.13;9.20;;;;;;;5.74;63.48;101532.53;5063674;28;20475;-66
2022/01/10 05:20:06;;;;;;;16.90;8.85;;;;;;;5.73;63.65;101536.19;5063535;28;20091;-67
2022/01/10 05:22:34;;;;;;;21.23;9.35;;;;;;;5.73;63.94;101543.34;5063374;28;20083;-67
2022/01/10 05:25:02;;;;;;;16.90;9.27;;;;;;;5.74;64.12;101550.34;5062783;28;20136;-66
2022/01/10 05:27:29;;;;;;;16.23;8.88;;;;;;;5.73;64.04;101538.84;5063201;28;20049;-67
2022/01/10 05:29:58;;;;;;;21.42;8.68;;;;;;;5.73;64.09;101562.88;5061431;28;20075;-66
2022/01/10 05:32:26;;;;;;;18.45;9.23;;;;;;;5.74;63.64;101569.03;5063594;28;20045;-67
2022/01/10 05:34:54;;;;;;;15.43;9.07;;;;;;;5.73;63.98;101562.03;5063164;28;20072;-67
2022/01/10 05:37:21;;;;;;;17.60;8.95;;;;;;;5.74;64.09;101571.69;5062679;28;20053;-67
2022/01/10 05:39:49;;;;;;;16.88;9.13;;;;;;;5.64;63.76;101566.56;5063163;28;20088;-67
2022/01/10 05:42:19;;;;;;;13.65;8.45;;;;;;;5.73;63.93;101583.38;5063030;28;20053;-67
2022/01/10 05:44:47;;;;;;;17.92;9.05;;;;;;;5.72;64.06;101589.69;5061619;28;20521;-67
2022/01/10 05:47:16;;;;;;;18.48;8.80;;;;;;;5.73;64.27;101594.03;5057079;28;20060;-67
2022/01/10 05:49:47;;;;;;;20.92;9.15;;;;;;;5.73;64.08;101586.88;5062596;28;20056;-67
2022/01/10 05:52:15;;;;;;;18.02;8.93;;;;;;;5.69;63.90;101596.22;5062317;28;20333;-67
2022/01/10 05:54:43;;;;;;;16.20;8.63;;;;;;;5.70;63.82;101597.88;5071686;28;20045;-67
2022/01/10 05:57:11;;;;;;;16.55;7.97;;;;;;;5.68;64.15;101599.03;5063020;28;20041;-67
2022/01/10 05:59:39;;;;;;;18.83;9.63;;;;;;;5.70;63.94;101613.88;5071961;28;20048;-67
2022/01/10 06:02:07;;;;;;;15.52;7.85;;;;;;;5.70;64.38;101624.53;5068345;28;20280;-67
2022/01/10 06:04:36;;;;;;;16.40;9.50;;;;;;;5.68;63.91;101626.53;5064751;28;20481;-67
2022/01/10 06:07:04;;;;;;;17.38;8.73;;;;;;;5.67;63.93;101616.88;5062469;28;20057;-67
2022/01/10 06:09:32;;;;;;;15.18;8.52;;;;;;;5.66;64.34;101623.22;5062563;28;20107;-67
2022/01/10 06:12:00;;;;;;;16.30;7.60;;;;;;;5.66;64.41;101631.22;5062259;28;20087;-67
2022/01/10 06:14:27;;;;;;;22.40;9.13;;;;;;;5.67;64.10;101632.88;5062914;28;20049;-67
2022/01/10 06:16:55;;;;;;;20.17;7.88;;;;;;;5.65;64.23;101642.06;5062881;28;20045;-65
2022/01/10 06:19:23;;;;;;;16.33;7.55;;;;;;;5.65;64.32;101642.88;5062667;28;20479;-67
2022/01/10 06:21:53;;;;;;;15.80;8.02;;;;;;;5.65;64.25;101648.22;5057668;28;20072;-66
2022/01/10 06:24:20;;;;;;;16.50;7.97;;;;;;;5.65;63.99;101642.06;5062478;28;20083;-67
2022/01/10 06:26:49;;;;;;;21.92;9.38;;;;;;;5.63;64.03;101647.56;5064544;28;20148;-67
2022/01/10 06:29:16;;;;;;;14.02;7.63;;;;;;;5.64;64.62;101659.06;5064287;28;20095;-66
2022/01/10 06:31:44;;;;;;;20.15;8.27;;;;;;;5.64;64.21;101665.22;5061460;28;20470;-66
2022/01/10 06:34:12;;;;;;;16.48;8.75;;;;;;;5.63;64.26;101668.88;5064950;28;20049;-65
2022/01/10 06:36:39;;;;;;;17.73;7.55;;;;;;;5.64;64.60;101677.72;5065667;28;20144;-72
2022/01/10 06:39:09;;;;;;;14.80;7.85;;;;;;;5.66;64.21;101681.88;5065053;28;20084;-68
2022/01/10 06:41:36;;;;;;;19.77;7.65;;;;;;;5.64;64.16;101681.22;5066261;28;20060;-68
2022/01/10 06:44:04;;;;;;;13.32;7.75;;;;;;;5.63;64.19;101692.88;5053894;28;20053;-67
2022/01/10 06:46:48;;;;;;;17.58;8.40;;;;;;;5.60;64.30;101690.56;4917946;28;10001167;-67
2022/01/10 06:49:16;;;;;;;12.27;7.00;;;;;;;5.60;64.85;101693.22;5060073;28;20323;-67
2022/01/10 06:51:44;;;;;;;16.38;8.35;;;;;;;5.63;64.49;101705.38;5061643;28;20107;-68
2022/01/10 06:54:13;;;;;;;14.75;7.30;;;;;;;5.62;64.42;101704.56;5056237;28;20092;-68
2022/01/10 06:56:40;;;;;;;15.30;7.60;;;;;;;5.62;64.34;101703.72;5052386;28;20048;-66
2022/01/10 06:59:08;;;;;;;15.50;9.20;;;;;;;5.64;64.25;101712.38;5055974;28;20087;-68
2022/01/10 07:01:37;;;;;;;17.73;7.72;;;;;;;5.62;64.42;101711.72;5059631;28;20049;-69
2022/01/10 07:04:06;;;;;;;18.15;8.52;;;;;;;5.61;64.62;101721.56;5053590;28;20045;-67
2022/01/10 07:06:34;;;;;;;13.48;7.72;;;;;;;5.63;64.52;101740.06;5060300;28;20091;-69
2022/01/10 07:09:02;;;;;;;15.10;8.52;;;;;;;5.59;64.50;101747.56;5061004;28;20103;-64
2022/01/10 07:11:31;;;;;;;17.92;7.82;;;;;;;5.58;64.57;101745.88;5058962;28;20107;-66
2022/01/10 07:13:59;;;;;;;15.65;8.93;;;;;;;5.57;64.42;101755.72;5061439;28;20052;-62
2022/01/10 07:16:27;;;;;;;16.42;7.30;;;;;;;5.57;64.84;101758.38;5061580;28;20080;-67
2022/01/10 07:18:54;;;;;;;14.57;7.38;;;;;;;5.57;64.96;101766.38;5062333;28;20087;-68
2022/01/10 07:21:22;;;;;;;16.90;7.88;;;;;;;5.56;64.25;101759.38;5061784;28;20056;-68
2022/01/10 07:23:51;;;;;;;16.88;7.07;;;;;;;5.56;64.22;101774.56;5060990;28;20136;-68
2022/01/10 07:26:18;;;;;;;14.63;7.28;;;;;;;5.54;64.52;101782.72;5062191;28;20052;-69
2022/01/10 07:28:51;;;;;;;14.63;8.05;;;;;;;5.56;64.75;101793.22;5061096;28;20049;-69
2022/01/10 07:31:19;;;;;;;14.75;7.40;;;;;;;5.57;64.38;101797.56;5058073;28;20052;-68
2022/01/10 07:33:47;;;;;;;17.60;8.93;;;;;;;5.56;64.17;101803.88;5061063;28;20041;-68
2022/01/10 07:36:14;;;;;;;13.88;8.10;;;;;;;5.53;64.23;101796.22;5060881;28;20151;-66
2022/01/10 07:38:42;;;;;;;15.30;8.32;;;;;;;5.53;64.50;101809.53;5060486;28;20057;-65
2022/01/10 07:41:10;;;;;;;17.83;8.93;;;;;;;5.53;64.42;101814.88;5057460;28;20045;-66
2022/01/10 07:43:38;;;;;;;13.65;7.88;;;;;;;5.54;64.35;101819.22;5060711;28;20083;-71
2022/01/10 07:46:07;;;;;;;15.63;7.75;;;;;;;5.54;64.63;101822.72;5061467;28;20060;-72
2022/01/10 07:48:38;;;;;;;12.45;7.03;;;;;;;5.50;64.27;101821.38;5060596;28;20051;-69
2022/01/10 07:51:08;;;;;;;12.57;7.78;;;;;;;5.54;64.30;101838.72;5046736;28;20053;-70
2022/01/10 07:53:37;;;;;;;16.13;8.07;;;;;;;5.52;64.41;101835.38;5058095;28;20430;-71
2022/01/10 07:56:06;;;;;;;14.77;8.60;;;;;;;5.54;64.75;101844.03;5057781;28;20072;-71
2022/01/10 07:58:35;;;;;;;13.75;8.18;;;;;;;5.55;63.93;101858.22;5054231;28;20049;-72
2022/01/10 08:01:03;;;;;;;11.52;7.65;;;;;;;5.55;64.56;101852.88;5061020;28;20079;-71
2022/01/10 08:03:33;;;;;;;15.02;8.35;;;;;;;5.52;64.34;101855.88;5060768;28;20052;-70
2022/01/10 08:06:01;;;;;;;15.13;8.32;;;;;;;5.55;64.29;101868.88;4707207;28;10000384;-69
2022/01/10 08:08:29;;;;;;;12.73;7.45;;;;;;;5.55;64.25;101879.53;5059511;28;20052;-70
2022/01/10 08:10:56;;;;;;;17.88;8.75;;;;;;;5.54;64.12;101875.22;5060394;28;20116;-70
2022/01/10 08:13:24;;;;;;;15.70;8.75;;;;;;;5.55;64.61;101892.88;5061806;28;20072;-67
2022/01/10 08:15:52;;;;;;;14.38;8.07;;;;;;;5.54;64.35;101900.03;5062919;28;20080;-70
2022/01/10 08:18:20;;;;;;;12.07;7.80;;;;;;;5.56;64.51;101899.88;5064332;28;20045;-67
2022/01/10 08:20:49;;;;;;;15.32;8.48;;;;;;;5.54;64.61;101897.38;5064164;28;20052;-70
2022/01/10 08:23:17;;;;;;;13.95;8.35;;;;;;;5.45;64.28;101886.84;5063542;28;20144;-69
2022/01/10 08:25:45;;;;;;;13.70;7.90;;;;;;;5.53;64.31;101901.03;5063429;28;20049;-70
2022/01/10 08:28:12;;;;;;;14.75;8.25;;;;;;;5.53;64.17;101913.53;5063208;28;20060;-70
2022/01/10 08:30:40;;;;;;;16.30;7.93;;;;;;;5.54;64.17;101915.19;5063788;28;20055;-70
2022/01/10 08:33:08;;;;;;;15.40;9.80;;;;;;;5.52;64.33;101923.38;5063572;28;20390;-70
2022/01/10 08:35:36;;;;;;;17.75;8.75;;;;;;;5.51;64.40;101929.69;5062170;28;20122;-70
2022/01/10 08:38:05;;;;;;;16.88;9.52;;;;;;;5.48;64.47;101934.50;5061653;28;20076;-70
2022/01/10 08:40:33;;;;;;;16.63;9.65;;;;;;;5.47;64.62;101941.69;5060142;28;20048;-70
2022/01/10 08:43:06;;;;;;;14.07;8.27;;;;;;;5.49;64.04;101953.00;5062378;28;20088;-70
2022/01/10 08:45:34;;;;;;;12.82;8.73;;;;;;;5.49;64.27;101958.34;5061747;28;20059;-70
2022/01/10 08:48:02;;;;;;;13.63;8.52;;;;;;;5.55;64.23;101967.53;5061204;28;20106;-70
2022/01/10 08:50:30;;;;;;;15.30;8.52;;;;;;;5.67;63.69;101968.06;5063323;28;20049;-71
2022/01/10 08:52:57;;;;;;;14.70;8.30;;;;;;;5.82;63.57;101985.94;5060437;28;20107;-70
2022/01/10 08:55:27;;;;;;;15.73;9.55;;;;;;;5.84;62.93;101972.44;5062838;28;20065;-71
2022/01/10 08:57:54;;;;;;;16.23;9.10;;;;;;;6.09;62.56;101998.22;5062736;28;20080;-70
2022/01/10 09:00:22;;;;;;;16.17;9.50;;;;;;;6.27;62.01;102005.25;5063376;28;20130;-70
2022/01/10 09:02:50;;;;;;;14.27;8.15;;;;;;;6.42;61.40;101998.25;5063112;28;20053;-70
2022/01/10 09:05:18;;;;;;;12.27;7.90;;;;;;;6.53;60.80;102016.63;5063586;28;20076;-70
2022/01/10 09:07:47;;;;;;;15.40;8.32;;;;;;;6.62;60.79;102017.44;5062118;28;20059;-69
2022/01/10 09:10:15;;;;;;;15.82;8.77;;;;;;;6.81;60.07;102017.09;5061431;28;20048;-70
2022/01/10 09:12:44;;;;;;;14.43;8.52;;;;;;;6.91;59.75;102024.94;5052212;28;20045;-70
2022/01/10 09:15:14;;;;;;;13.85;8.50;;;;;;;7.01;59.63;102025.56;5058441;28;20743;-69
2022/01/10 09:17:41;;;;;;;16.38;9.00;;;;;;;7.13;58.91;102026.88;5056914;28;20073;-69
2022/01/10 09:20:10;;;;;;;14.57;8.80;;;;;;;7.19;59.22;102026.22;5063044;28;20402;-69
2022/01/10 09:22:38;;;;;;;14.48;8.77;;;;;;;7.24;59.16;102028.38;5062610;28;20064;-69
2022/01/10 09:25:07;;;;;;;11.98;7.85;;;;;;;7.26;58.69;102029.03;5061805;28;20073;-69
2022/01/10 09:27:35;;;;;;;16.50;7.97;;;;;;;7.26;59.06;102029.03;5055583;28;20063;-68
2022/01/10 09:30:04;;;;;;;11.95;7.93;;;;;;;7.29;58.43;102032.19;5060605;28;20122;-68
2022/01/10 09:32:32;;;;;;;12.50;8.07;;;;;;;7.29;58.92;102036.72;5063088;28;20049;-68
2022/01/10 09:35:00;;;;;;;13.15;8.30;;;;;;;7.25;58.88;102035.38;5054808;28;20882;-68
2022/01/10 09:37:28;;;;;;;14.00;8.73;;;;;;;7.23;59.14;102042.75;5060132;28;20071;-68
2022/01/10 09:40:00;;;;;;;11.27;7.10;;;;;;;7.27;59.12;102050.25;5061581;28;20095;-69
2022/01/10 09:42:29;;;;;;;12.30;8.15;;;;;;;7.28;58.82;102051.91;5061183;28;20111;-68
2022/01/10 09:44:56;;;;;;;12.60;8.00;;;;;;;7.28;58.40;102045.75;5059549;28;20041;-67
2022/01/10 09:47:26;;;;;;;11.75;7.50;;;;;;;7.30;58.99;102052.59;5061404;28;20080;-67
2022/01/10 09:49:53;;;;;;;12.88;8.02;;;;;;;7.29;58.43;102040.22;5059221;28;20045;-67
2022/01/10 09:52:21;;;;;;;11.00;7.40;;;;;;;7.31;59.09;102042.72;5062473;28;20128;-67
2022/01/10 09:54:50;;;;;;;12.27;6.95;;;;;;;7.30;58.89;102049.06;5062254;28;20045;-67
2022/01/10 09:57:18;;;;;;;13.02;7.07;;;;;;;7.23;58.80;102053.44;5057353;28;20045;-68
2022/01/10 09:59:47;;;;;;;11.98;7.63;;;;;;;6.98;59.39;102053.47;5058753;28;20079;-68
2022/01/10 10:02:15;;;;;;;12.90;8.90;;;;;;;6.84;60.26;102065.72;5065189;28;20060;-68
2022/01/10 10:04:45;;;;;;;12.10;7.72;;;;;;;6.70;60.51;102065.53;5066641;28;20071;-68
2022/01/10 10:07:15;;;;;;;13.48;8.55;;;;;;;6.59;61.17;102079.22;5065766;28;20053;-68
2022/01/10 10:09:45;;;;;;;11.18;7.60;;;;;;;6.52;61.59;102085.22;5065108;28;20433;-67
2022/01/10 10:12:14;;;;;;;11.95;8.65;;;;;;;6.46;61.57;102093.06;5066404;28;20110;-67
2022/01/10 10:14:46;;;;;;;13.73;7.72;;;;;;;6.31;62.10;102092.03;5062659;28;20067;-73
2022/01/10 10:17:18;;;;;;;11.07;8.07;;;;;;;6.26;62.29;102089.00;5064488;28;20395;-66
2022/01/10 10:19:47;;;;;;;10.45;7.47;;;;;;;6.24;62.58;102105.19;5060114;28;20072;-66
2022/01/10 10:22:16;;;;;;;12.57;8.27;;;;;;;6.16;62.95;102100.66;5066235;28;20049;-66
2022/01/10 10:24:48;;;;;;;11.80;7.63;;;;;;;6.14;62.76;102117.81;5060719;28;20055;-67
2022/01/10 10:27:17;;;;;;;13.20;7.93;;;;;;;6.11;63.26;102126.16;5066569;28;20049;-64
2022/01/10 10:30:09;;;;;;;12.75;7.75;;;;;;;6.08;62.99;102121.97;5065784;28;20509;-67
2022/01/10 10:32:36;;;;;;;11.13;7.28;;;;;;;6.07;63.25;102135.47;5062455;28;20075;-66
2022/01/10 10:35:12;;;;;;;11.95;7.75;;;;;;;6.05;63.46;102134.81;5061216;28;20041;-66
2022/01/10 10:37:42;;;;;;;12.70;7.72;;;;;;;6.03;63.28;102137.63;5065778;28;20060;-66
2022/01/10 10:40:14;;;;;;;14.18;8.25;;;;;;;6.10;63.31;102143.16;5065744;28;20055;-66
2022/01/10 10:42:44;;;;;;;11.52;7.20;;;;;;;6.22;62.83;102139.22;5064515;28;20608;-67
2022/01/10 10:45:14;;;;;;;10.88;7.63;;;;;;;6.35;62.40;102136.91;5065516;28;20045;-67
2022/01/10 10:47:44;;;;;;;11.32;6.97;;;;;;;6.52;62.09;102138.63;5062920;28;20072;-66
2022/01/10 10:50:13;;;;;;;11.10;7.80;;;;;;;6.71;61.75;102144.69;5062615;28;20053;-66
2022/01/10 10:52:42;;;;;;;14.32;7.75;;;;;;;6.83;61.19;102148.72;5061349;28;20128;-67
2022/01/10 10:55:11;;;;;;;12.10;7.75;;;;;;;6.86;60.73;102129.66;5065790;28;20072;-66
2022/01/10 10:57:40;;;;;;;10.95;6.90;;;;;;;6.94;60.26;102148.34;5065722;28;20080;-67
2022/01/10 11:00:11;;;;;;;11.50;7.18;;;;;;;6.85;61.04;102154.72;5064628;28;20076;-66
2022/01/10 11:02:39;;;;;;;13.07;7.53;;;;;;;6.74;61.00;102147.03;5057947;28;20112;-64
2022/01/10 11:05:08;;;;;;;11.65;7.13;;;;;;;6.59;61.68;102154.00;5057995;28;20079;-66
2022/01/10 11:07:37;;;;;;;16.83;7.38;;;;;;;6.46;62.30;102162.47;5064257;28;20049;-65
2022/01/10 11:10:15;;;;;;;12.52;7.78;;;;;;;6.36;62.43;102169.78;5058629;28;20053;-65
2022/01/10 11:12:48;;;;;;;11.60;7.45;;;;;;;6.32;62.71;102177.28;5064174;28;20048;-64
2022/01/10 11:15:16;;;;;;;16.15;9.15;;;;;;;6.25;63.18;102178.94;5062358;28;20041;-66
2022/01/10 11:17:44;;;;;;;14.55;7.40;;;;;;;6.22;62.86;102181.94;5064543;28;20048;-66
2022/01/10 11:20:16;;;;;;;15.52;8.20;;;;;;;6.17;63.28;102185.06;5065232;28;20048;-67
2022/01/10 11:22:47;;;;;;;10.32;6.78;;;;;;;6.13;63.52;102194.41;5063677;28;20089;-66
2022/01/10 11:25:27;;;;;;;13.07;7.13;;;;;;;6.12;63.44;102191.88;5064281;28;20110;-66
2022/01/10 11:27:58;;;;;;;13.75;6.88;;;;;;;5.99;63.68;102196.81;5064854;28;20137;-67
2022/01/10 11:30:34;;;;;;;13.65;7.43;;;;;;;6.05;63.49;102207.69;5060225;28;20662;-67
2022/01/10 11:33:07;;;;;;;15.37;6.83;;;;;;;6.02;64.21;102213.34;5060815;28;20049;-67
2022/01/10 11:35:54;;;;;;;12.30;6.85;;;;;;;5.99;64.14;102218.16;5062601;28;20311;-67
2022/01/10 11:38:37;;;;;;;12.57;8.02;;;;;;;5.89;64.45;102204.94;5062684;28;20363;-67